Ne plus se rappeler de moi
Bonjour et Bienvenue
Pas de session ouverte
Jeudi 24/04/2014
d:\inetpub\wwwroot\acrroussillon\reservation\ACR\IMAGES\IMG1.JPGd:\inetpub\wwwroot\acrroussillon\reservation\ACR\IMAGES\IMG2.JPGd:\inetpub\wwwroot\acrroussillon\reservation\ACR/IMAGES/IMG3.jpg
00:00:00
Horaires du 24/04/2014 (Données à titre indicatif seulement).
Lever du soleil : 06h53 - Coucher du soleil : 20h40 (Heure Locale)
Jour aéronautique : 06h23 - Nuit aéronautique : 21h10 (Heure Locale)
Planning des réservations des aéronefs
Planning des réservations des aéronefs
2014/04/24 05:30
LFMP 240530Z 24006KT 9999 FEW066 13/10 Q1018
Planning des réservations des aéronefs
2014/04/24 06:15
TAF LFMP 240500Z 2406/2506 VRB03KT 9999 NSC
BECMG 2409/2411 10012KT
TEMPO 2414/2415 16015G30KT
BECMG 2420/2422 31012KT
TEMPO 2419/2506 SHRA BKN040TCU BKN080 PROB30
TEMPO 2420/2423 5000 TSRA BKN030CB
Informations sur les aéronefs
Informations sur les aéronefs
Modifications des Types de vols
ATTENTION PLUS DE PAIEMENT EN LIGNE DEPUIS LA MAISON
AEROCLUB DU ROUSSILLON. AVENUE MAURICE BELLONTE. 66000 PERPIGNAN. Tel : 04.68.73.48.18 Fax : 09.55.16.18.97 Courriel : aeroclub-roussillon@hotmail.fr
 METAR / TAF
LIENS UTILES
envoyer un e-mail
d:\inetpub\wwwroot\acrroussillon\reservation\ACR/IMAGES/Logo.jpg
Identifiez vous pour interaction
d:\inetpub\wwwroot\acrroussillon\reservation\ACR/IMAGES/Logo.jpg
Aéro-Club du Roussillon